sensor_id;sensor_type;location;lat;lon;timestamp;P1;durP1;ratioP1;P2;durP2;ratioP2
40807;SDS011;26523;52.504;13.498;2023-09-12T00:01:05;18.80;;;8.50;;
40807;SDS011;26523;52.504;13.498;2023-09-12T00:03:32;21.65;;;9.55;;
40807;SDS011;26523;52.504;13.498;2023-09-12T00:05:59;18.65;;;8.85;;
40807;SDS011;26523;52.504;13.498;2023-09-12T00:08:26;19.92;;;8.85;;
40807;SDS011;26523;52.504;13.498;2023-09-12T00:11:08;12.07;;;7.55;;
40807;SDS011;26523;52.504;13.498;2023-09-12T00:13:36;15.10;;;9.17;;
40807;SDS011;26523;52.504;13.498;2023-09-12T00:16:03;13.90;;;8.60;;
40807;SDS011;26523;52.504;13.498;2023-09-12T00:18:30;14.20;;;8.00;;
40807;SDS011;26523;52.504;13.498;2023-09-12T00:20:56;13.82;;;7.50;;
40807;SDS011;26523;52.504;13.498;2023-09-12T00:23:22;19.17;;;8.43;;
40807;SDS011;26523;52.504;13.498;2023-09-12T00:25:49;18.25;;;8.80;;
40807;SDS011;26523;52.504;13.498;2023-09-12T00:28:16;18.27;;;9.07;;
40807;SDS011;26523;52.504;13.498;2023-09-12T00:30:42;14.23;;;7.43;;
40807;SDS011;26523;52.504;13.498;2023-09-12T00:33:08;17.05;;;9.32;;
40807;SDS011;26523;52.504;13.498;2023-09-12T00:35:35;19.25;;;8.48;;
40807;SDS011;26523;52.504;13.498;2023-09-12T00:38:01;18.05;;;8.25;;
40807;SDS011;26523;52.504;13.498;2023-09-12T00:40:27;19.08;;;8.55;;
40807;SDS011;26523;52.504;13.498;2023-09-12T00:42:53;19.88;;;8.77;;
40807;SDS011;26523;52.504;13.498;2023-09-12T00:45:19;16.10;;;8.93;;
40807;SDS011;26523;52.504;13.498;2023-09-12T00:47:45;18.85;;;9.75;;
40807;SDS011;26523;52.504;13.498;2023-09-12T00:50:12;21.17;;;9.60;;
40807;SDS011;26523;52.504;13.498;2023-09-12T00:52:39;17.17;;;9.50;;
40807;SDS011;26523;52.504;13.498;2023-09-12T00:55:07;22.70;;;9.15;;
40807;SDS011;26523;52.504;13.498;2023-09-12T00:57:33;17.30;;;8.45;;
40807;SDS011;26523;52.504;13.498;2023-09-12T01:00:04;18.42;;;8.50;;
40807;SDS011;26523;52.504;13.498;2023-09-12T01:02:39;22.65;;;8.80;;
40807;SDS011;26523;52.504;13.498;2023-09-12T01:05:06;17.63;;;8.13;;
40807;SDS011;26523;52.504;13.498;2023-09-12T01:07:33;18.45;;;7.82;;
40807;SDS011;26523;52.504;13.498;2023-09-12T01:10:00;19.48;;;8.52;;
40807;SDS011;26523;52.504;13.498;2023-09-12T01:12:29;15.95;;;8.73;;
40807;SDS011;26523;52.504;13.498;2023-09-12T01:14:55;12.85;;;7.90;;
40807;SDS011;26523;52.504;13.498;2023-09-12T01:17:21;15.77;;;8.27;;
40807;SDS011;26523;52.504;13.498;2023-09-12T01:19:47;19.23;;;8.65;;
40807;SDS011;26523;52.504;13.498;2023-09-12T01:25:42;16.83;;;8.30;;
40807;SDS011;26523;52.504;13.498;2023-09-12T01:28:29;15.98;;;8.60;;
40807;SDS011;26523;52.504;13.498;2023-09-12T01:30:56;15.73;;;8.43;;
40807;SDS011;26523;52.504;13.498;2023-09-12T01:33:23;19.42;;;8.63;;
40807;SDS011;26523;52.504;13.498;2023-09-12T01:35:49;18.55;;;8.73;;
40807;SDS011;26523;52.504;13.498;2023-09-12T01:38:15;19.63;;;9.07;;
40807;SDS011;26523;52.504;13.498;2023-09-12T01:40:44;18.17;;;8.65;;
40807;SDS011;26523;52.504;13.498;2023-09-12T01:43:13;17.33;;;8.77;;
40807;SDS011;26523;52.504;13.498;2023-09-12T01:45:41;16.77;;;8.43;;
40807;SDS011;26523;52.504;13.498;2023-09-12T01:48:08;19.40;;;8.40;;
40807;SDS011;26523;52.504;13.498;2023-09-12T01:50:36;15.00;;;8.82;;
40807;SDS011;26523;52.504;13.498;2023-09-12T01:53:02;16.08;;;8.48;;
40807;SDS011;26523;52.504;13.498;2023-09-12T01:55:29;15.77;;;9.05;;
40807;SDS011;26523;52.504;13.498;2023-09-12T01:57:55;18.25;;;9.18;;
40807;SDS011;26523;52.504;13.498;2023-09-12T02:00:23;16.33;;;8.65;;
40807;SDS011;26523;52.504;13.498;2023-09-12T02:02:50;20.40;;;8.88;;
40807;SDS011;26523;52.504;13.498;2023-09-12T02:05:16;15.77;;;8.35;;
40807;SDS011;26523;52.504;13.498;2023-09-12T02:07:46;18.02;;;8.85;;
40807;SDS011;26523;52.504;13.498;2023-09-12T02:10:12;19.58;;;8.95;;
40807;SDS011;26523;52.504;13.498;2023-09-12T02:12:39;17.48;;;9.38;;
40807;SDS011;26523;52.504;13.498;2023-09-12T02:15:05;17.20;;;8.55;;
40807;SDS011;26523;52.504;13.498;2023-09-12T02:17:31;16.17;;;8.18;;
40807;SDS011;26523;52.504;13.498;2023-09-12T02:19:57;17.05;;;9.57;;
40807;SDS011;26523;52.504;13.498;2023-09-12T02:22:22;22.13;;;9.30;;
40807;SDS011;26523;52.504;13.498;2023-09-12T02:24:48;16.65;;;9.00;;
40807;SDS011;26523;52.504;13.498;2023-09-12T02:27:15;17.33;;;9.02;;
40807;SDS011;26523;52.504;13.498;2023-09-12T02:29:41;18.02;;;9.35;;
40807;SDS011;26523;52.504;13.498;2023-09-12T02:32:07;19.83;;;8.85;;
40807;SDS011;26523;52.504;13.498;2023-09-12T02:34:33;20.45;;;8.82;;
40807;SDS011;26523;52.504;13.498;2023-09-12T02:36:59;17.30;;;8.93;;
40807;SDS011;26523;52.504;13.498;2023-09-12T02:39:25;19.10;;;9.00;;
40807;SDS011;26523;52.504;13.498;2023-09-12T02:41:50;21.38;;;8.95;;
40807;SDS011;26523;52.504;13.498;2023-09-12T02:44:16;20.70;;;9.75;;
40807;SDS011;26523;52.504;13.498;2023-09-12T02:46:42;17.77;;;9.75;;
40807;SDS011;26523;52.504;13.498;2023-09-12T02:49:07;16.20;;;9.48;;
40807;SDS011;26523;52.504;13.498;2023-09-12T02:51:33;19.77;;;8.77;;
40807;SDS011;26523;52.504;13.498;2023-09-12T02:54:03;19.10;;;9.27;;
40807;SDS011;26523;52.504;13.498;2023-09-12T02:56:28;18.92;;;8.85;;
40807;SDS011;26523;52.504;13.498;2023-09-12T02:58:55;18.77;;;9.35;;
40807;SDS011;26523;52.504;13.498;2023-09-12T03:01:21;19.13;;;8.30;;
40807;SDS011;26523;52.504;13.498;2023-09-12T03:03:47;19.20;;;8.50;;
40807;SDS011;26523;52.504;13.498;2023-09-12T03:06:13;19.05;;;9.63;;
40807;SDS011;26523;52.504;13.498;2023-09-12T03:08:43;18.75;;;9.55;;
40807;SDS011;26523;52.504;13.498;2023-09-12T03:11:08;22.60;;;10.13;;
40807;SDS011;26523;52.504;13.498;2023-09-12T03:13:36;20.35;;;8.85;;
40807;SDS011;26523;52.504;13.498;2023-09-12T03:16:02;19.30;;;9.73;;
40807;SDS011;26523;52.504;13.498;2023-09-12T03:18:29;21.38;;;9.02;;
40807;SDS011;26523;52.504;13.498;2023-09-12T03:20:54;18.95;;;9.32;;
40807;SDS011;26523;52.504;13.498;2023-09-12T03:23:20;18.63;;;9.38;;
40807;SDS011;26523;52.504;13.498;2023-09-12T03:25:46;20.40;;;9.50;;
40807;SDS011;26523;52.504;13.498;2023-09-12T03:28:11;17.70;;;9.32;;
40807;SDS011;26523;52.504;13.498;2023-09-12T03:30:37;17.60;;;9.07;;
40807;SDS011;26523;52.504;13.498;2023-09-12T03:33:04;15.13;;;9.43;;
40807;SDS011;26523;52.504;13.498;2023-09-12T03:35:33;20.58;;;10.85;;
40807;SDS011;26523;52.504;13.498;2023-09-12T03:37:59;23.83;;;11.15;;
40807;SDS011;26523;52.504;13.498;2023-09-12T03:40:25;23.38;;;9.82;;
40807;SDS011;26523;52.504;13.498;2023-09-12T03:42:53;21.88;;;10.80;;
40807;SDS011;26523;52.504;13.498;2023-09-12T03:45:18;19.55;;;8.98;;
40807;SDS011;26523;52.504;13.498;2023-09-12T03:47:44;14.02;;;8.95;;
40807;SDS011;26523;52.504;13.498;2023-09-12T03:50:11;20.10;;;9.57;;
40807;SDS011;26523;52.504;13.498;2023-09-12T03:52:38;20.13;;;10.27;;
40807;SDS011;26523;52.504;13.498;2023-09-12T03:55:04;18.40;;;9.50;;
40807;SDS011;26523;52.504;13.498;2023-09-12T03:57:30;17.35;;;9.98;;
40807;SDS011;26523;52.504;13.498;2023-09-12T03:59:56;19.33;;;10.93;;
40807;SDS011;26523;52.504;13.498;2023-09-12T04:02:22;18.67;;;10.15;;
40807;SDS011;26523;52.504;13.498;2023-09-12T04:04:48;21.40;;;11.02;;
40807;SDS011;26523;52.504;13.498;2023-09-12T04:07:13;17.58;;;9.70;;
40807;SDS011;26523;52.504;13.498;2023-09-12T04:09:39;24.27;;;10.73;;
40807;SDS011;26523;52.504;13.498;2023-09-12T04:12:05;15.18;;;8.80;;
40807;SDS011;26523;52.504;13.498;2023-09-12T04:14:34;22.05;;;10.20;;
40807;SDS011;26523;52.504;13.498;2023-09-12T04:17:00;18.90;;;9.75;;
40807;SDS011;26523;52.504;13.498;2023-09-12T04:19:26;20.48;;;10.73;;
40807;SDS011;26523;52.504;13.498;2023-09-12T04:21:51;18.67;;;10.13;;
40807;SDS011;26523;52.504;13.498;2023-09-12T04:24:17;24.25;;;12.35;;
40807;SDS011;26523;52.504;13.498;2023-09-12T04:26:43;22.88;;;11.98;;
40807;SDS011;26523;52.504;13.498;2023-09-12T04:29:10;21.13;;;11.52;;
40807;SDS011;26523;52.504;13.498;2023-09-12T04:31:37;18.77;;;10.63;;
40807;SDS011;26523;52.504;13.498;2023-09-12T04:34:03;19.60;;;10.30;;
40807;SDS011;26523;52.504;13.498;2023-09-12T04:36:28;23.73;;;11.68;;
40807;SDS011;26523;52.504;13.498;2023-09-12T04:38:54;20.65;;;10.63;;
40807;SDS011;26523;52.504;13.498;2023-09-12T04:41:20;28.85;;;11.32;;
40807;SDS011;26523;52.504;13.498;2023-09-12T04:43:47;20.23;;;11.80;;
40807;SDS011;26523;52.504;13.498;2023-09-12T04:46:13;21.85;;;11.35;;
40807;SDS011;26523;52.504;13.498;2023-09-12T04:48:38;23.17;;;11.52;;
40807;SDS011;26523;52.504;13.498;2023-09-12T04:51:05;20.90;;;10.88;;
40807;SDS011;26523;52.504;13.498;2023-09-12T04:53:31;25.55;;;11.65;;
40807;SDS011;26523;52.504;13.498;2023-09-12T04:56:02;24.52;;;11.55;;
40807;SDS011;26523;52.504;13.498;2023-09-12T04:58:31;20.58;;;12.07;;
40807;SDS011;26523;52.504;13.498;2023-09-12T05:00:57;32.72;;;10.88;;
40807;SDS011;26523;52.504;13.498;2023-09-12T05:03:23;19.85;;;10.88;;
40807;SDS011;26523;52.504;13.498;2023-09-12T05:05:49;17.08;;;10.38;;
40807;SDS011;26523;52.504;13.498;2023-09-12T05:08:15;23.17;;;11.05;;
40807;SDS011;26523;52.504;13.498;2023-09-12T05:10:43;20.20;;;10.82;;
40807;SDS011;26523;52.504;13.498;2023-09-12T05:13:09;17.75;;;10.25;;
40807;SDS011;26523;52.504;13.498;2023-09-12T05:15:35;19.00;;;11.63;;
40807;SDS011;26523;52.504;13.498;2023-09-12T05:18:02;17.58;;;10.48;;
40807;SDS011;26523;52.504;13.498;2023-09-12T05:20:28;22.95;;;11.05;;
40807;SDS011;26523;52.504;13.498;2023-09-12T05:22:53;18.85;;;10.73;;
40807;SDS011;26523;52.504;13.498;2023-09-12T05:25:19;23.92;;;10.90;;
40807;SDS011;26523;52.504;13.498;2023-09-12T05:27:45;22.40;;;10.27;;
40807;SDS011;26523;52.504;13.498;2023-09-12T05:30:10;19.23;;;10.52;;
40807;SDS011;26523;52.504;13.498;2023-09-12T05:32:36;21.92;;;10.52;;
40807;SDS011;26523;52.504;13.498;2023-09-12T05:35:02;17.48;;;10.05;;
40807;SDS011;26523;52.504;13.498;2023-09-12T05:37:28;19.60;;;10.63;;
40807;SDS011;26523;52.504;13.498;2023-09-12T05:39:54;19.15;;;10.15;;
40807;SDS011;26523;52.504;13.498;2023-09-12T05:42:20;17.85;;;10.80;;
40807;SDS011;26523;52.504;13.498;2023-09-12T05:44:47;21.90;;;10.38;;
40807;SDS011;26523;52.504;13.498;2023-09-12T05:47:14;20.88;;;10.13;;
40807;SDS011;26523;52.504;13.498;2023-09-12T05:49:40;20.92;;;11.00;;
40807;SDS011;26523;52.504;13.498;2023-09-12T05:52:06;19.25;;;11.23;;
40807;SDS011;26523;52.504;13.498;2023-09-12T05:54:31;19.70;;;10.65;;
40807;SDS011;26523;52.504;13.498;2023-09-12T05:56:57;17.60;;;10.63;;
40807;SDS011;26523;52.504;13.498;2023-09-12T05:59:23;21.45;;;10.27;;
40807;SDS011;26523;52.504;13.498;2023-09-12T06:01:48;17.23;;;10.68;;
40807;SDS011;26523;52.504;13.498;2023-09-12T06:04:14;22.52;;;10.55;;
40807;SDS011;26523;52.504;13.498;2023-09-12T06:06:40;19.08;;;10.50;;
40807;SDS011;26523;52.504;13.498;2023-09-12T06:09:06;16.90;;;9.95;;
40807;SDS011;26523;52.504;13.498;2023-09-12T06:11:31;20.50;;;11.05;;
40807;SDS011;26523;52.504;13.498;2023-09-12T06:13:57;23.52;;;10.02;;
40807;SDS011;26523;52.504;13.498;2023-09-12T06:16:23;21.10;;;10.10;;
40807;SDS011;26523;52.504;13.498;2023-09-12T06:18:49;18.77;;;9.88;;
40807;SDS011;26523;52.504;13.498;2023-09-12T06:21:14;23.00;;;10.40;;
40807;SDS011;26523;52.504;13.498;2023-09-12T06:23:40;22.27;;;10.10;;
40807;SDS011;26523;52.504;13.498;2023-09-12T06:26:06;18.85;;;9.82;;
40807;SDS011;26523;52.504;13.498;2023-09-12T06:28:31;21.45;;;9.60;;
40807;SDS011;26523;52.504;13.498;2023-09-12T06:30:57;23.85;;;9.75;;
40807;SDS011;26523;52.504;13.498;2023-09-12T06:33:24;22.92;;;9.63;;
40807;SDS011;26523;52.504;13.498;2023-09-12T06:35:50;24.23;;;10.50;;
40807;SDS011;26523;52.504;13.498;2023-09-12T06:38:18;21.77;;;10.43;;
40807;SDS011;26523;52.504;13.498;2023-09-12T06:40:44;15.25;;;9.23;;
40807;SDS011;26523;52.504;13.498;2023-09-12T06:43:10;17.70;;;9.38;;
40807;SDS011;26523;52.504;13.498;2023-09-12T06:45:36;17.02;;;9.77;;
40807;SDS011;26523;52.504;13.498;2023-09-12T06:48:03;15.55;;;8.75;;
40807;SDS011;26523;52.504;13.498;2023-09-12T06:50:29;19.70;;;8.98;;
40807;SDS011;26523;52.504;13.498;2023-09-12T06:52:55;20.00;;;8.93;;
40807;SDS011;26523;52.504;13.498;2023-09-12T06:55:20;21.92;;;9.77;;
40807;SDS011;26523;52.504;13.498;2023-09-12T06:57:46;20.70;;;9.48;;
40807;SDS011;26523;52.504;13.498;2023-09-12T07:00:12;15.45;;;8.40;;
40807;SDS011;26523;52.504;13.498;2023-09-12T07:02:39;24.02;;;9.45;;
40807;SDS011;26523;52.504;13.498;2023-09-12T07:05:06;22.70;;;10.32;;
40807;SDS011;26523;52.504;13.498;2023-09-12T07:07:32;19.83;;;8.32;;
40807;SDS011;26523;52.504;13.498;2023-09-12T07:09:58;18.25;;;8.88;;
40807;SDS011;26523;52.504;13.498;2023-09-12T07:12:24;21.55;;;9.38;;
40807;SDS011;26523;52.504;13.498;2023-09-12T07:14:51;18.88;;;8.82;;
40807;SDS011;26523;52.504;13.498;2023-09-12T07:17:16;19.45;;;9.13;;
40807;SDS011;26523;52.504;13.498;2023-09-12T07:19:42;26.65;;;9.48;;
40807;SDS011;26523;52.504;13.498;2023-09-12T07:22:08;14.60;;;7.93;;
40807;SDS011;26523;52.504;13.498;2023-09-12T07:24:34;15.00;;;8.10;;
40807;SDS011;26523;52.504;13.498;2023-09-12T07:27:00;20.50;;;7.55;;
40807;SDS011;26523;52.504;13.498;2023-09-12T07:29:25;15.18;;;7.72;;
40807;SDS011;26523;52.504;13.498;2023-09-12T07:31:52;17.00;;;7.95;;
40807;SDS011;26523;52.504;13.498;2023-09-12T07:34:19;16.00;;;7.25;;
40807;SDS011;26523;52.504;13.498;2023-09-12T07:36:45;13.82;;;7.38;;
40807;SDS011;26523;52.504;13.498;2023-09-12T07:39:11;14.07;;;7.28;;
40807;SDS011;26523;52.504;13.498;2023-09-12T07:41:37;16.45;;;6.35;;
40807;SDS011;26523;52.504;13.498;2023-09-12T07:44:02;14.68;;;6.05;;
40807;SDS011;26523;52.504;13.498;2023-09-12T07:46:30;11.20;;;5.97;;
40807;SDS011;26523;52.504;13.498;2023-09-12T07:48:57;14.45;;;6.60;;
40807;SDS011;26523;52.504;13.498;2023-09-12T07:51:23;15.10;;;5.90;;
40807;SDS011;26523;52.504;13.498;2023-09-12T07:53:49;11.93;;;6.05;;
40807;SDS011;26523;52.504;13.498;2023-09-12T07:56:16;19.92;;;5.93;;
40807;SDS011;26523;52.504;13.498;2023-09-12T07:58:41;11.93;;;6.28;;
40807;SDS011;26523;52.504;13.498;2023-09-12T08:01:08;11.43;;;5.70;;
40807;SDS011;26523;52.504;13.498;2023-09-12T08:03:35;13.90;;;5.85;;
40807;SDS011;26523;52.504;13.498;2023-09-12T08:06:02;16.83;;;6.45;;
40807;SDS011;26523;52.504;13.498;2023-09-12T08:08:28;13.90;;;6.00;;
40807;SDS011;26523;52.504;13.498;2023-09-12T08:10:55;12.20;;;5.57;;
40807;SDS011;26523;52.504;13.498;2023-09-12T08:13:22;15.82;;;5.70;;
40807;SDS011;26523;52.504;13.498;2023-09-12T08:15:50;11.90;;;5.93;;
40807;SDS011;26523;52.504;13.498;2023-09-12T08:18:17;9.63;;;4.82;;
40807;SDS011;26523;52.504;13.498;2023-09-12T08:20:43;23.02;;;6.40;;
40807;SDS011;26523;52.504;13.498;2023-09-12T08:23:08;11.70;;;5.60;;
40807;SDS011;26523;52.504;13.498;2023-09-12T08:25:34;15.13;;;5.35;;
40807;SDS011;26523;52.504;13.498;2023-09-12T08:28:00;10.82;;;5.88;;
40807;SDS011;26523;52.504;13.498;2023-09-12T08:30:26;10.02;;;5.40;;
40807;SDS011;26523;52.504;13.498;2023-09-12T08:32:54;16.38;;;5.25;;
40807;SDS011;26523;52.504;13.498;2023-09-12T08:35:20;11.43;;;5.25;;
40807;SDS011;26523;52.504;13.498;2023-09-12T08:37:46;11.45;;;5.22;;
40807;SDS011;26523;52.504;13.498;2023-09-12T08:40:11;7.20;;;4.75;;
40807;SDS011;26523;52.504;13.498;2023-09-12T08:42:38;14.68;;;5.68;;
40807;SDS011;26523;52.504;13.498;2023-09-12T08:45:16;12.57;;;4.88;;
40807;SDS011;26523;52.504;13.498;2023-09-12T08:47:46;14.55;;;5.97;;
40807;SDS011;26523;52.504;13.498;2023-09-12T08:50:15;14.93;;;5.53;;
40807;SDS011;26523;52.504;13.498;2023-09-12T08:52:42;18.05;;;5.93;;
40807;SDS011;26523;52.504;13.498;2023-09-12T08:55:09;13.57;;;5.00;;
40807;SDS011;26523;52.504;13.498;2023-09-12T08:57:36;15.68;;;5.18;;
40807;SDS011;26523;52.504;13.498;2023-09-12T09:00:05;23.90;;;5.57;;
40807;SDS011;26523;52.504;13.498;2023-09-12T09:02:33;12.05;;;4.75;;
40807;SDS011;26523;52.504;13.498;2023-09-12T09:05:03;20.40;;;4.80;;
40807;SDS011;26523;52.504;13.498;2023-09-12T09:07:33;13.55;;;5.00;;
40807;SDS011;26523;52.504;13.498;2023-09-12T09:10:03;12.52;;;5.10;;
40807;SDS011;26523;52.504;13.498;2023-09-12T09:12:31;15.63;;;5.20;;
40807;SDS011;26523;52.504;13.498;2023-09-12T09:14:57;14.25;;;5.40;;
40807;SDS011;26523;52.504;13.498;2023-09-12T09:17:23;17.27;;;4.60;;
40807;SDS011;26523;52.504;13.498;2023-09-12T09:19:49;12.25;;;5.07;;
40807;SDS011;26523;52.504;13.498;2023-09-12T09:22:15;9.70;;;4.82;;
40807;SDS011;26523;52.504;13.498;2023-09-12T09:24:41;8.98;;;4.03;;
40807;SDS011;26523;52.504;13.498;2023-09-12T09:27:06;10.85;;;4.38;;
40807;SDS011;26523;52.504;13.498;2023-09-12T09:29:32;15.32;;;4.60;;
40807;SDS011;26523;52.504;13.498;2023-09-12T09:32:17;11.63;;;3.80;;
40807;SDS011;26523;52.504;13.498;2023-09-12T09:34:46;24.07;;;4.90;;
40807;SDS011;26523;52.504;13.498;2023-09-12T09:37:12;13.30;;;3.90;;
40807;SDS011;26523;52.504;13.498;2023-09-12T09:39:40;13.57;;;4.10;;
40807;SDS011;26523;52.504;13.498;2023-09-12T09:42:09;20.80;;;4.85;;
40807;SDS011;26523;52.504;13.498;2023-09-12T09:44:35;13.02;;;4.82;;
40807;SDS011;26523;52.504;13.498;2023-09-12T09:47:01;14.32;;;4.22;;
40807;SDS011;26523;52.504;13.498;2023-09-12T09:49:27;9.40;;;4.18;;
40807;SDS011;26523;52.504;13.498;2023-09-12T09:51:59;12.82;;;4.30;;
40807;SDS011;26523;52.504;13.498;2023-09-12T09:54:28;12.07;;;4.43;;
40807;SDS011;26523;52.504;13.498;2023-09-12T09:56:54;13.40;;;4.45;;
40807;SDS011;26523;52.504;13.498;2023-09-12T09:59:21;14.43;;;4.30;;
40807;SDS011;26523;52.504;13.498;2023-09-12T10:01:49;10.75;;;4.07;;
40807;SDS011;26523;52.504;13.498;2023-09-12T10:04:16;11.77;;;4.68;;
40807;SDS011;26523;52.504;13.498;2023-09-12T10:06:44;12.52;;;4.25;;
40807;SDS011;26523;52.504;13.498;2023-09-12T10:09:12;9.18;;;4.53;;
40807;SDS011;26523;52.504;13.498;2023-09-12T10:11:39;17.05;;;5.43;;
40807;SDS011;26523;52.504;13.498;2023-09-12T10:14:06;11.40;;;5.03;;
40807;SDS011;26523;52.504;13.498;2023-09-12T10:16:33;11.18;;;4.22;;
40807;SDS011;26523;52.504;13.498;2023-09-12T10:21:31;19.83;;;5.75;;
40807;SDS011;26523;52.504;13.498;2023-09-12T10:24:00;11.70;;;5.43;;
40807;SDS011;26523;52.504;13.498;2023-09-12T10:26:28;10.10;;;5.20;;
40807;SDS011;26523;52.504;13.498;2023-09-12T10:28:56;14.90;;;4.43;;
40807;SDS011;26523;52.504;13.498;2023-09-12T10:31:24;17.30;;;5.10;;
40807;SDS011;26523;52.504;13.498;2023-09-12T10:33:51;9.82;;;4.82;;
40807;SDS011;26523;52.504;13.498;2023-09-12T10:36:18;10.63;;;5.07;;
40807;SDS011;26523;52.504;13.498;2023-09-12T10:38:47;17.25;;;5.32;;
40807;SDS011;26523;52.504;13.498;2023-09-12T10:41:14;11.35;;;5.30;;
40807;SDS011;26523;52.504;13.498;2023-09-12T10:43:41;12.65;;;5.20;;
40807;SDS011;26523;52.504;13.498;2023-09-12T10:46:08;17.55;;;6.30;;
40807;SDS011;26523;52.504;13.498;2023-09-12T10:48:34;20.75;;;6.28;;
40807;SDS011;26523;52.504;13.498;2023-09-12T10:51:01;12.70;;;5.30;;
40807;SDS011;26523;52.504;13.498;2023-09-12T10:53:31;12.38;;;5.70;;
40807;SDS011;26523;52.504;13.498;2023-09-12T10:56:00;14.13;;;5.18;;
40807;SDS011;26523;52.504;13.498;2023-09-12T11:01:32;14.48;;;5.60;;
40807;SDS011;26523;52.504;13.498;2023-09-12T11:03:59;21.38;;;5.78;;
40807;SDS011;26523;52.504;13.498;2023-09-12T11:06:48;12.63;;;5.00;;
40807;SDS011;26523;52.504;13.498;2023-09-12T11:11:45;14.38;;;5.07;;
40807;SDS011;26523;52.504;13.498;2023-09-12T11:14:12;13.77;;;4.22;;
40807;SDS011;26523;52.504;13.498;2023-09-12T11:16:40;14.30;;;4.78;;
40807;SDS011;26523;52.504;13.498;2023-09-12T11:21:47;15.20;;;5.03;;
40807;SDS011;26523;52.504;13.498;2023-09-12T11:24:15;13.65;;;5.03;;
40807;SDS011;26523;52.504;13.498;2023-09-12T11:29:27;11.60;;;4.03;;
40807;SDS011;26523;52.504;13.498;2023-09-12T11:32:03;16.42;;;4.45;;
40807;SDS011;26523;52.504;13.498;2023-09-12T11:34:51;16.85;;;4.05;;
40807;SDS011;26523;52.504;13.498;2023-09-12T11:37:23;14.43;;;3.85;;
40807;SDS011;26523;52.504;13.498;2023-09-12T11:39:50;19.00;;;4.25;;
40807;SDS011;26523;52.504;13.498;2023-09-12T11:42:17;12.55;;;5.22;;
40807;SDS011;26523;52.504;13.498;2023-09-12T11:44:43;13.60;;;4.47;;
40807;SDS011;26523;52.504;13.498;2023-09-12T11:47:09;15.98;;;5.25;;
40807;SDS011;26523;52.504;13.498;2023-09-12T11:49:40;15.52;;;5.05;;
40807;SDS011;26523;52.504;13.498;2023-09-12T11:52:10;10.75;;;4.32;;
40807;SDS011;26523;52.504;13.498;2023-09-12T11:54:38;14.88;;;4.07;;
40807;SDS011;26523;52.504;13.498;2023-09-12T11:57:09;13.23;;;5.30;;
40807;SDS011;26523;52.504;13.498;2023-09-12T11:59:39;10.25;;;4.88;;
40807;SDS011;26523;52.504;13.498;2023-09-12T12:02:08;14.80;;;4.72;;
40807;SDS011;26523;52.504;13.498;2023-09-12T12:04:35;9.75;;;4.38;;
40807;SDS011;26523;52.504;13.498;2023-09-12T12:07:01;14.48;;;4.50;;
40807;SDS011;26523;52.504;13.498;2023-09-12T12:09:29;8.43;;;3.95;;
40807;SDS011;26523;52.504;13.498;2023-09-12T12:11:55;8.95;;;4.43;;
40807;SDS011;26523;52.504;13.498;2023-09-12T12:14:25;10.65;;;4.03;;
40807;SDS011;26523;52.504;13.498;2023-09-12T12:16:51;10.70;;;4.07;;
40807;SDS011;26523;52.504;13.498;2023-09-12T12:19:17;9.20;;;4.45;;
40807;SDS011;26523;52.504;13.498;2023-09-12T12:21:43;9.13;;;3.83;;
40807;SDS011;26523;52.504;13.498;2023-09-12T12:24:13;8.40;;;3.97;;
40807;SDS011;26523;52.504;13.498;2023-09-12T12:26:41;11.63;;;3.95;;
40807;SDS011;26523;52.504;13.498;2023-09-12T12:29:10;8.98;;;4.07;;
40807;SDS011;26523;52.504;13.498;2023-09-12T12:31:36;11.57;;;4.10;;
40807;SDS011;26523;52.504;13.498;2023-09-12T12:34:04;11.95;;;4.85;;
40807;SDS011;26523;52.504;13.498;2023-09-12T12:36:31;8.15;;;3.80;;
40807;SDS011;26523;52.504;13.498;2023-09-12T12:38:57;10.13;;;4.45;;
40807;SDS011;26523;52.504;13.498;2023-09-12T12:41:27;17.42;;;4.60;;
40807;SDS011;26523;52.504;13.498;2023-09-12T12:43:56;15.68;;;4.60;;
40807;SDS011;26523;52.504;13.498;2023-09-12T12:46:25;5.95;;;3.65;;
40807;SDS011;26523;52.504;13.498;2023-09-12T12:48:52;8.82;;;3.55;;
40807;SDS011;26523;52.504;13.498;2023-09-12T12:51:18;11.75;;;4.32;;
40807;SDS011;26523;52.504;13.498;2023-09-12T12:53:54;9.13;;;4.38;;
40807;SDS011;26523;52.504;13.498;2023-09-12T12:58:49;9.77;;;4.18;;
40807;SDS011;26523;52.504;13.498;2023-09-12T13:01:20;10.48;;;4.03;;
40807;SDS011;26523;52.504;13.498;2023-09-12T13:03:46;7.97;;;3.53;;
40807;SDS011;26523;52.504;13.498;2023-09-12T13:06:14;7.03;;;3.58;;
40807;SDS011;26523;52.504;13.498;2023-09-12T13:08:40;10.50;;;4.10;;
40807;SDS011;26523;52.504;13.498;2023-09-12T13:11:09;8.13;;;3.92;;
40807;SDS011;26523;52.504;13.498;2023-09-12T13:13:37;8.27;;;3.40;;
40807;SDS011;26523;52.504;13.498;2023-09-12T13:16:06;5.75;;;3.58;;
40807;SDS011;26523;52.504;13.498;2023-09-12T13:18:37;9.13;;;4.05;;
40807;SDS011;26523;52.504;13.498;2023-09-12T13:21:04;11.98;;;4.05;;
40807;SDS011;26523;52.504;13.498;2023-09-12T13:23:30;17.02;;;4.13;;
40807;SDS011;26523;52.504;13.498;2023-09-12T13:25:58;10.65;;;3.67;;
40807;SDS011;26523;52.504;13.498;2023-09-12T13:28:24;11.52;;;5.35;;
40807;SDS011;26523;52.504;13.498;2023-09-12T13:30:53;28.63;;;13.93;;
40807;SDS011;26523;52.504;13.498;2023-09-12T13:33:20;17.02;;;8.30;;
40807;SDS011;26523;52.504;13.498;2023-09-12T13:35:47;13.65;;;6.07;;
40807;SDS011;26523;52.504;13.498;2023-09-12T13:38:14;13.35;;;4.63;;
40807;SDS011;26523;52.504;13.498;2023-09-12T13:40:42;8.82;;;3.95;;
40807;SDS011;26523;52.504;13.498;2023-09-12T13:43:08;7.35;;;3.42;;
40807;SDS011;26523;52.504;13.498;2023-09-12T13:45:34;12.18;;;4.22;;
40807;SDS011;26523;52.504;13.498;2023-09-12T13:48:01;15.35;;;4.30;;
40807;SDS011;26523;52.504;13.498;2023-09-12T13:50:28;12.88;;;4.00;;
40807;SDS011;26523;52.504;13.498;2023-09-12T13:52:55;10.18;;;4.25;;
40807;SDS011;26523;52.504;13.498;2023-09-12T13:55:24;9.85;;;4.03;;
40807;SDS011;26523;52.504;13.498;2023-09-12T13:57:52;11.45;;;3.90;;
40807;SDS011;26523;52.504;13.498;2023-09-12T14:00:21;16.40;;;4.55;;
40807;SDS011;26523;52.504;13.498;2023-09-12T14:02:46;7.88;;;3.97;;
40807;SDS011;26523;52.504;13.498;2023-09-12T14:05:12;17.73;;;4.35;;
40807;SDS011;26523;52.504;13.498;2023-09-12T14:07:39;11.90;;;4.88;;
40807;SDS011;26523;52.504;13.498;2023-09-12T14:10:06;12.88;;;4.32;;
40807;SDS011;26523;52.504;13.498;2023-09-12T14:12:35;14.80;;;4.03;;
40807;SDS011;26523;52.504;13.498;2023-09-12T14:15:01;13.10;;;5.13;;
40807;SDS011;26523;52.504;13.498;2023-09-12T14:17:28;8.85;;;4.05;;
40807;SDS011;26523;52.504;13.498;2023-09-12T14:19:56;9.82;;;3.88;;
40807;SDS011;26523;52.504;13.498;2023-09-12T14:22:21;9.23;;;4.63;;
40807;SDS011;26523;52.504;13.498;2023-09-12T14:24:47;12.43;;;4.45;;
40807;SDS011;26523;52.504;13.498;2023-09-12T14:27:13;14.52;;;4.38;;
40807;SDS011;26523;52.504;13.498;2023-09-12T14:29:38;13.57;;;5.85;;
40807;SDS011;26523;52.504;13.498;2023-09-12T14:32:04;13.93;;;5.47;;
40807;SDS011;26523;52.504;13.498;2023-09-12T14:34:30;9.15;;;4.43;;
40807;SDS011;26523;52.504;13.498;2023-09-12T14:36:58;14.80;;;5.32;;
40807;SDS011;26523;52.504;13.498;2023-09-12T14:39:24;9.98;;;4.60;;